Time;durP1;ratioP1;P1;durP2;ratioP2;P2;SDS_P1;SDS_P2;PMS_P1;PMS_P2;Temp;Humidity;BMP_temperature;BMP_pressure;BME280_temperature;BME280_humidity;BME280_pressure;Samples;Min_cycle;Max_cycle;Signal;HPM_P1;HPM_P2
2023/07/24 00:00:04;;;;;;;0.60;0.60;;;;;;;24.87;47.33;95485.56;5092329;28;20436;-56
2023/07/24 00:02:34;;;;;;;0.60;0.50;;;;;;;24.81;49.57;95497.81;5090980;28;20437;-56
2023/07/24 00:05:03;;;;;;;0.70;0.40;;;;;;;24.98;50.35;95497.41;5092403;28;20441;-56
2023/07/24 00:07:31;;;;;;;0.50;0.37;;;;;;;25.02;50.14;95500.97;5092126;28;20436;-56
2023/07/24 00:10:00;;;;;;;0.50;0.50;;;;;;;24.91;48.99;95495.34;5092379;28;20440;-56
2023/07/24 00:12:28;;;;;;;0.50;0.30;;;;;;;24.80;48.33;95505.16;5091956;28;20969;-55
2023/07/24 00:14:57;;;;;;;0.90;0.90;;;;;;;24.67;48.95;95511.81;5092549;28;20454;-55
2023/07/24 00:17:25;;;;;;;0.50;0.40;;;;;;;24.83;48.97;95512.59;5091901;28;20433;-56
2023/07/24 00:19:55;;;;;;;0.40;0.30;;;;;;;24.95;49.73;95511.66;5092085;28;20437;-56
2023/07/24 00:22:24;;;;;;;0.50;0.43;;;;;;;25.02;48.72;95512.59;5058849;28;20438;-56
2023/07/24 00:24:52;;;;;;;0.77;0.60;;;;;;;25.14;48.81;95519.81;5071621;28;20512;-55
2023/07/24 00:27:21;;;;;;;2.20;0.67;;;;;;;25.07;46.41;95515.03;5072243;28;20442;-56
2023/07/24 00:29:49;;;;;;;0.67;0.53;;;;;;;24.70;50.08;95515.72;5071038;28;20521;-56
2023/07/24 00:32:18;;;;;;;0.80;0.80;;;;;;;24.75;50.48;95513.53;5066464;28;20481;-56
2023/07/24 00:34:46;;;;;;;0.77;0.77;;;;;;;24.80;50.38;95512.50;5071290;28;20942;-56
2023/07/24 00:37:16;;;;;;;1.53;1.03;;;;;;;24.93;50.00;95509.31;5071856;28;20438;-56
2023/07/24 00:39:44;;;;;;;1.03;0.67;;;;;;;24.55;50.21;95509.22;5071024;28;20444;-56
2023/07/24 00:42:13;;;;;;;1.60;0.40;;;;;;;24.45;50.82;95509.75;5071713;28;20442;-55
2023/07/24 00:44:41;;;;;;;2.10;0.60;;;;;;;24.53;51.06;95506.88;5071450;28;20964;-56
2023/07/24 00:47:10;;;;;;;0.73;0.50;;;;;;;24.43;50.39;95517.47;5071562;28;20444;-56
2023/07/24 00:49:39;;;;;;;0.50;0.40;;;;;;;24.09;50.96;95507.34;5071527;28;20939;-55
2023/07/24 00:52:09;;;;;;;1.63;0.50;;;;;;;24.43;51.75;95517.47;5071645;28;20483;-55
2023/07/24 00:54:40;;;;;;;2.80;0.73;;;;;;;24.33;52.19;95507.97;5071476;28;20438;-55
2023/07/24 00:57:09;;;;;;;0.70;0.50;;;;;;;24.34;49.45;95506.00;5071416;28;20441;-55
2023/07/24 00:59:37;;;;;;;0.40;0.20;;;;;;;24.15;51.84;95503.25;5071680;28;20805;-55
2023/07/24 01:02:06;;;;;;;0.40;0.30;;;;;;;24.23;50.25;95522.03;5070791;28;20441;-54
2023/07/24 01:04:35;;;;;;;0.50;0.30;;;;;;;23.72;52.70;95439.13;5058950;28;20444;-55
2023/07/24 01:07:04;;;;;;;1.90;0.93;;;;;;;24.22;52.14;95522.38;5070909;28;20442;-54
2023/07/24 01:09:33;;;;;;;0.80;0.50;;;;;;;24.29;52.93;95525.25;5071079;28;20442;-55
2023/07/24 01:12:10;;;;;;;0.50;0.30;;;;;;;24.06;51.03;95525.03;5071257;28;20487;-54
2023/07/24 01:14:47;;;;;;;0.60;0.40;;;;;;;24.22;52.43;95525.06;5071898;28;20470;-54
2023/07/24 01:17:19;;;;;;;0.50;0.30;;;;;;;24.15;52.29;95520.28;5071293;28;20451;-54
2023/07/24 01:19:49;;;;;;;0.60;0.30;;;;;;;24.40;51.82;95518.16;5071575;28;20495;-54
2023/07/24 01:22:30;;;;;;;0.97;0.90;;;;;;;23.61;50.80;95517.34;5071353;28;20829;-55
2023/07/24 01:25:06;;;;;;;0.87;0.67;;;;;;;22.90;50.98;95524.56;5071068;28;20449;-54
2023/07/24 01:27:36;;;;;;;0.80;0.80;;;;;;;23.43;54.35;95510.66;5071240;28;20441;-54
2023/07/24 01:30:05;;;;;;;0.50;0.40;;;;;;;23.80;53.04;95514.75;5071324;28;20441;-54
2023/07/24 01:32:33;;;;;;;0.60;0.40;;;;;;;23.87;53.72;95516.84;5071443;28;20828;-54
2023/07/24 01:35:02;;;;;;;0.90;0.50;;;;;;;23.75;51.26;95516.94;5070720;28;20445;-54
2023/07/24 01:37:32;;;;;;;0.50;0.30;;;;;;;23.72;52.34;95506.78;5071111;28;20437;-55
2023/07/24 01:40:01;;;;;;;1.07;1.07;;;;;;;23.97;54.09;95509.00;5070910;28;20442;-54
2023/07/24 01:42:30;;;;;;;0.60;0.40;;;;;;;24.03;53.12;95510.28;5071458;28;20468;-55
2023/07/24 01:45:00;;;;;;;0.90;0.37;;;;;;;24.05;52.32;95517.28;5071148;28;20446;-54
2023/07/24 01:47:29;;;;;;;1.10;0.60;;;;;;;24.17;53.21;95511.81;5074154;28;20445;-54
2023/07/24 01:49:58;;;;;;;0.40;0.30;;;;;;;23.97;53.06;95506.28;5075076;28;20441;-54
2023/07/24 01:52:27;;;;;;;0.60;0.57;;;;;;;23.89;52.67;95487.50;5074919;28;20501;-54
2023/07/24 01:54:56;;;;;;;0.70;0.70;;;;;;;23.87;51.92;95511.44;5075008;28;20445;-54
2023/07/24 01:57:24;;;;;;;2.27;0.60;;;;;;;23.92;51.95;95513.88;5074377;28;20444;-53
2023/07/24 01:59:53;;;;;;;0.50;0.40;;;;;;;24.11;52.79;95515.94;5083181;28;20433;-54
2023/07/24 02:02:23;;;;;;;0.60;0.50;;;;;;;22.99;51.64;95354.94;5094375;28;20433;-53
2023/07/24 02:04:51;;;;;;;0.50;0.40;;;;;;;23.84;51.48;95512.91;5094721;28;20519;-54
2023/07/24 02:07:20;;;;;;;0.80;0.80;;;;;;;23.93;52.62;95524.34;5094137;28;20498;-54
2023/07/24 02:09:48;;;;;;;4.00;0.83;;;;;;;23.90;51.90;95519.66;5094865;28;20452;-54
2023/07/24 02:12:16;;;;;;;5.13;0.57;;;;;;;24.00;52.11;95518.34;5094615;28;20476;-54
2023/07/24 02:14:48;;;;;;;2.10;0.50;;;;;;;23.78;50.25;95527.81;5094508;28;20436;-53
2023/07/24 02:17:16;;;;;;;0.73;0.73;;;;;;;23.44;51.37;95519.56;5094235;28;20869;-54
2023/07/24 02:19:46;;;;;;;1.30;0.60;;;;;;;23.41;51.70;95523.75;5095054;28;20811;-53
2023/07/24 02:22:16;;;;;;;0.60;0.60;;;;;;;23.25;52.75;95523.66;5074306;28;20437;-53
2023/07/24 02:24:44;;;;;;;0.47;0.37;;;;;;;23.26;53.91;95524.47;5073907;28;20437;-53
2023/07/24 02:27:14;;;;;;;0.50;0.50;;;;;;;23.33;53.28;95524.66;5074018;28;20453;-53
2023/07/24 02:29:43;;;;;;;0.70;0.70;;;;;;;23.48;53.56;95521.22;5073797;28;20437;-53
2023/07/24 02:32:11;;;;;;;0.90;0.70;;;;;;;23.48;53.39;95523.94;5073972;28;20472;-53
2023/07/24 02:34:39;;;;;;;3.03;0.70;;;;;;;23.22;53.53;95518.19;5073538;28;20989;-53
2023/07/24 02:37:09;;;;;;;2.47;1.20;;;;;;;23.52;53.44;95524.84;5074320;28;20441;-53
2023/07/24 02:39:38;;;;;;;0.60;0.60;;;;;;;23.60;53.40;95515.78;5074016;28;20438;-53
2023/07/24 02:42:06;;;;;;;0.70;0.53;;;;;;;23.77;52.94;95518.16;5073657;28;20469;-53
2023/07/24 02:44:35;;;;;;;12.43;0.70;;;;;;;23.29;53.75;95448.84;5073347;28;20504;-53
2023/07/24 02:47:04;;;;;;;1.60;1.27;;;;;;;23.68;53.14;95516.75;5073606;28;20433;-53
2023/07/24 02:49:33;;;;;;;1.47;1.37;;;;;;;23.22;53.37;95462.19;5073231;28;20478;-53
2023/07/24 02:52:02;;;;;;;0.60;0.50;;;;;;;23.52;53.68;95519.41;5073760;28;20441;-53
2023/07/24 02:54:32;;;;;;;11.63;0.87;;;;;;;23.62;53.97;95521.63;5073457;28;20519;-53
2023/07/24 02:57:00;;;;;;;0.70;0.40;;;;;;;23.31;52.62;95527.72;5073062;28;20449;-53
2023/07/24 02:59:31;;;;;;;0.50;0.40;;;;;;;23.03;53.25;95523.41;5073318;28;20441;-53
2023/07/24 03:02:00;;;;;;;0.60;0.37;;;;;;;22.96;54.92;95526.72;5073419;28;20935;-53
2023/07/24 03:04:28;;;;;;;2.30;0.60;;;;;;;23.25;54.54;95534.47;5072935;28;20441;-53
2023/07/24 03:06:57;;;;;;;0.40;0.30;;;;;;;22.95;54.93;95532.44;5073123;28;20442;-52
2023/07/24 03:09:25;;;;;;;0.70;0.40;;;;;;;22.89;54.00;95529.22;5073276;28;20441;-52
2023/07/24 03:11:55;;;;;;;0.50;0.30;;;;;;;23.14;55.79;95532.63;5073107;28;20797;-52
2023/07/24 03:14:23;;;;;;;0.83;0.83;;;;;;;23.00;56.23;95537.59;5073011;28;20473;-52
2023/07/24 03:16:52;;;;;;;0.93;0.80;;;;;;;22.39;56.11;95539.63;5072898;28;20839;-52
2023/07/24 03:19:20;;;;;;;0.50;0.40;;;;;;;22.71;56.95;95542.19;5073323;28;20471;-52
2023/07/24 03:21:49;;;;;;;0.63;0.53;;;;;;;22.97;56.94;95541.03;5073150;28;20437;-52
2023/07/24 03:24:17;;;;;;;0.50;0.50;;;;;;;22.74;55.31;95541.50;5072847;28;20442;-52
2023/07/24 03:26:46;;;;;;;1.67;0.30;;;;;;;22.79;57.59;95545.91;5072616;28;20495;-51
2023/07/24 03:29:16;;;;;;;0.50;0.40;;;;;;;22.79;57.04;95548.59;5072635;28;20441;-52
2023/07/24 03:31:44;;;;;;;0.70;0.50;;;;;;;22.97;57.37;95549.13;5072457;28;20442;-52
2023/07/24 03:34:13;;;;;;;1.17;0.53;;;;;;;22.92;58.33;95550.13;5072354;28;20496;-52
2023/07/24 03:36:42;;;;;;;4.63;0.70;;;;;;;22.96;57.16;95553.75;5072707;28;20503;-52
2023/07/24 03:39:10;;;;;;;1.07;0.30;;;;;;;23.01;58.18;95552.72;5072190;28;20860;-52
2023/07/24 03:41:39;;;;;;;0.60;0.47;;;;;;;23.13;57.38;95547.25;5072411;28;20437;-52
2023/07/24 03:44:07;;;;;;;0.63;0.47;;;;;;;23.04;57.28;95543.91;5072465;28;20559;-51
2023/07/24 03:46:37;;;;;;;0.40;0.30;;;;;;;23.18;56.11;95557.84;5072830;28;20452;-52
2023/07/24 03:49:06;;;;;;;0.50;0.40;;;;;;;23.25;57.04;95561.53;5072396;28;20465;-52
2023/07/24 03:51:34;;;;;;;0.70;0.60;;;;;;;23.41;56.39;95558.13;5072576;28;21021;-53
2023/07/24 03:54:03;;;;;;;0.50;0.40;;;;;;;23.61;55.80;95557.91;5072248;28;20473;-52
2023/07/24 03:56:31;;;;;;;0.77;0.70;;;;;;;23.62;56.07;95559.50;5072449;28;20835;-53
2023/07/24 03:59:18;;;;;;;5.10;0.57;;;;;;;23.68;56.57;95554.63;5071770;28;20943;-53
2023/07/24 04:01:48;;;;;;;2.20;1.00;;;;;;;23.51;57.03;95558.41;5072519;28;20441;-53
2023/07/24 04:04:16;;;;;;;1.37;1.27;;;;;;;23.63;56.79;95557.59;5072180;28;20438;-53
2023/07/24 04:06:46;;;;;;;1.23;0.70;;;;;;;23.84;55.78;95561.63;5071658;28;20449;-53
2023/07/24 04:09:15;;;;;;;1.00;0.63;;;;;;;23.71;55.47;95559.34;5071298;28;20442;-53
2023/07/24 04:11:44;;;;;;;1.30;1.20;;;;;;;23.71;56.42;95559.34;5072079;28;20437;-54
2023/07/24 04:14:13;;;;;;;1.07;0.77;;;;;;;23.52;56.47;95562.72;5059498;28;20480;-54
2023/07/24 04:16:41;;;;;;;0.77;0.47;;;;;;;23.65;56.72;95564.25;5071518;28;20838;-54
2023/07/24 04:19:11;;;;;;;1.10;1.00;;;;;;;23.79;55.88;95561.91;5071544;28;20444;-54
2023/07/24 04:21:42;;;;;;;0.70;0.40;;;;;;;23.66;55.36;95565.78;5071837;28;20951;-53
2023/07/24 04:24:10;;;;;;;1.27;0.57;;;;;;;23.45;56.63;95567.94;5080945;28;20452;-54
2023/07/24 04:26:39;;;;;;;0.73;0.70;;;;;;;23.49;56.88;95565.31;5092086;28;20439;-54
2023/07/24 04:29:08;;;;;;;1.87;1.13;;;;;;;23.12;58.51;95564.63;5091856;28;20441;-54
2023/07/24 04:31:36;;;;;;;1.50;0.97;;;;;;;23.26;58.11;95567.72;5091884;28;20897;-54
2023/07/24 04:34:05;;;;;;;1.30;1.20;;;;;;;23.48;58.24;95569.16;5091744;28;20474;-54
2023/07/24 04:36:34;;;;;;;1.80;0.87;;;;;;;23.54;58.03;95570.47;5091705;28;20440;-55
2023/07/24 04:39:03;;;;;;;0.60;0.47;;;;;;;23.73;57.13;95568.69;5092127;28;20437;-55
2023/07/24 04:41:31;;;;;;;0.73;0.50;;;;;;;23.90;57.45;95571.09;5090871;28;20451;-55
2023/07/24 04:44:00;;;;;;;0.63;0.63;;;;;;;23.97;56.61;95563.16;5091631;28;21055;-55
2023/07/24 04:46:28;;;;;;;0.60;0.50;;;;;;;23.87;57.03;95573.69;5090602;28;20945;-55
2023/07/24 04:48:57;;;;;;;0.70;0.50;;;;;;;23.60;55.31;95577.22;5091666;28;20456;-55
2023/07/24 04:51:25;;;;;;;0.70;0.67;;;;;;;23.76;56.69;95569.91;5091143;28;20464;-55
2023/07/24 04:53:56;;;;;;;0.60;0.60;;;;;;;23.76;55.20;95576.13;5091603;28;20472;-55
2023/07/24 04:56:24;;;;;;;0.60;0.40;;;;;;;23.96;56.47;95577.00;5091978;28;20444;-55
2023/07/24 04:58:53;;;;;;;1.43;1.00;;;;;;;23.40;56.85;95576.28;5091244;28;20441;-54
2023/07/24 05:01:21;;;;;;;2.30;2.20;;;;;;;23.21;58.72;95576.09;5091741;28;20523;-55
2023/07/24 05:03:50;;;;;;;5.90;0.57;;;;;;;23.25;57.85;95568.88;5090896;28;20436;-56
2023/07/24 05:06:18;;;;;;;0.50;0.40;;;;;;;23.60;58.33;95572.59;5091305;28;20817;-55
2023/07/24 05:08:47;;;;;;;2.00;0.50;;;;;;;23.83;57.32;95572.81;5090762;28;20456;-55
2023/07/24 05:11:16;;;;;;;1.93;1.70;;;;;;;23.79;58.38;95574.63;5091562;28;20440;-56
2023/07/24 05:13:45;;;;;;;0.67;0.67;;;;;;;23.61;60.58;95568.75;5090022;28;20525;-56
2023/07/24 05:16:13;;;;;;;5.93;0.63;;;;;;;23.69;59.71;95553.47;5090991;28;20465;-56
2023/07/24 05:18:42;;;;;;;16.07;0.83;;;;;;;23.60;58.81;95564.50;5091724;28;20463;-57
2023/07/24 05:21:10;;;;;;;4.00;1.90;;;;;;;22.84;58.27;95561.88;5094055;28;20444;-57
2023/07/24 05:23:39;;;;;;;3.43;1.40;;;;;;;22.67;58.43;95565.59;5094916;28;20459;-57
2023/07/24 05:26:07;;;;;;;2.27;1.20;;;;;;;22.65;57.96;95570.56;5095878;28;20829;-57
2023/07/24 05:28:37;;;;;;;2.90;1.33;;;;;;;22.62;58.40;95571.25;5095039;28;20437;-57
2023/07/24 05:31:07;;;;;;;6.60;2.50;;;;;;;22.75;58.56;95583.63;5095515;28;20445;-58
2023/07/24 05:33:36;;;;;;;1.17;0.97;;;;;;;23.05;61.32;95565.19;5095216;28;20440;-58
2023/07/24 05:36:05;;;;;;;1.27;1.27;;;;;;;23.52;57.69;95565.41;5095161;28;20436;-59
2023/07/24 05:38:34;;;;;;;2.93;0.80;;;;;;;23.93;56.75;95564.97;5061920;28;20446;-59
2023/07/24 05:41:04;;;;;;;0.70;0.70;;;;;;;24.24;54.90;95569.63;5074811;28;20510;-58
2023/07/24 05:43:33;;;;;;;0.80;0.57;;;;;;;24.27;54.92;95568.16;5074763;28;20964;-59
2023/07/24 05:46:03;;;;;;;1.90;0.60;;;;;;;24.27;55.16;95565.44;5074582;28;20451;-59
2023/07/24 05:48:31;;;;;;;0.93;0.60;;;;;;;24.73;54.24;95564.63;5074311;28;20514;-59
2023/07/24 05:51:00;;;;;;;3.90;1.03;;;;;;;25.10;52.97;95557.72;5074748;28;20464;-59
2023/07/24 05:53:29;;;;;;;1.13;1.13;;;;;;;24.99;53.08;95564.06;5074769;28;20448;-60
2023/07/24 05:55:59;;;;;;;0.87;0.70;;;;;;;25.52;54.35;95552.41;5074434;28;20988;-61
2023/07/24 05:58:28;;;;;;;1.30;0.70;;;;;;;25.50;51.07;95553.91;5074967;28;20472;-62
2023/07/24 06:00:56;;;;;;;0.60;0.43;;;;;;;25.78;54.42;95562.56;5074661;28;20445;-62
2023/07/24 06:03:26;;;;;;;0.50;0.40;;;;;;;25.84;51.55;95550.28;5074420;28;20573;-62
2023/07/24 06:05:56;;;;;;;1.93;1.83;;;;;;;25.71;49.77;95544.22;5073856;28;20449;-62
2023/07/24 06:08:24;;;;;;;2.23;0.90;;;;;;;25.33;50.23;95543.44;5074884;28;20451;-63
2023/07/24 06:10:52;;;;;;;1.23;0.87;;;;;;;25.71;50.51;95554.31;5069249;28;20441;-63
2023/07/24 06:13:21;;;;;;;0.80;0.80;;;;;;;26.49;51.82;95543.66;5081276;28;20973;-63
2023/07/24 06:15:50;;;;;;;1.93;1.40;;;;;;;26.25;51.63;95546.00;5060245;28;20590;-65
2023/07/24 06:18:19;;;;;;;1.10;1.00;;;;;;;26.47;48.95;95542.44;5073853;28;20470;-65
2023/07/24 06:20:53;;;;;;;0.83;0.77;;;;;;;26.99;50.21;95537.03;5074209;28;20438;-65
2023/07/24 06:23:21;;;;;;;1.47;1.37;;;;;;;26.97;49.74;95524.94;5073983;28;20433;-65
2023/07/24 06:25:51;;;;;;;1.63;1.53;;;;;;;27.44;48.55;95536.09;5074632;28;20463;-65
2023/07/24 06:28:20;;;;;;;3.37;1.10;;;;;;;27.73;47.48;95530.97;5073901;28;20437;-64
2023/07/24 06:30:48;;;;;;;2.60;1.40;;;;;;;27.16;47.79;95529.47;5074171;28;20438;-63
2023/07/24 06:33:17;;;;;;;4.80;2.10;;;;;;;27.40;46.83;95529.03;5072930;28;20460;-62
2023/07/24 06:35:45;;;;;;;2.03;1.93;;;;;;;27.28;46.49;95532.75;5072921;28;21020;-61
2023/07/24 06:38:15;;;;;;;2.10;0.70;;;;;;;27.49;46.90;95524.06;5077532;28;20443;-61
2023/07/24 06:40:43;;;;;;;1.47;1.37;;;;;;;28.12;47.48;95526.69;5093881;28;20447;-60
2023/07/24 06:43:12;;;;;;;2.10;2.00;;;;;;;28.14;46.16;95535.28;5094163;28;20443;-60
2023/07/24 06:45:40;;;;;;;8.90;1.30;;;;;;;28.05;46.77;95523.91;5093647;28;20440;-60
2023/07/24 06:48:09;;;;;;;2.80;2.53;;;;;;;27.49;44.72;95515.91;5093746;28;20463;-51
2023/07/24 06:50:37;;;;;;;1.60;1.50;;;;;;;28.35;45.18;95519.09;5093631;28;20439;-51
2023/07/24 06:53:06;;;;;;;3.07;1.03;;;;;;;28.49;44.08;95521.94;5092769;28;20463;-51
2023/07/24 06:55:35;;;;;;;0.93;0.83;;;;;;;29.10;43.02;95515.72;5093868;28;20468;-51
2023/07/24 06:58:04;;;;;;;3.90;1.50;;;;;;;29.11;43.28;95520.00;5094115;28;20471;-51
2023/07/24 07:00:33;;;;;;;0.50;0.50;;;;;;;29.61;41.74;95514.75;5093725;28;20878;-51
2023/07/24 07:03:01;;;;;;;0.60;0.60;;;;;;;30.22;41.87;95513.72;5093895;28;20443;-51
2023/07/24 07:05:30;;;;;;;1.03;1.00;;;;;;;29.34;41.47;95515.06;5093134;28;21075;-51
2023/07/24 07:07:58;;;;;;;0.83;0.80;;;;;;;29.80;41.32;95506.25;5093188;28;20444;-51
2023/07/24 07:10:26;;;;;;;1.70;1.60;;;;;;;29.71;41.12;95506.59;5093053;28;20440;-51
2023/07/24 07:12:56;;;;;;;0.87;0.87;;;;;;;30.56;40.55;95499.28;5093941;28;20447;-51
2023/07/24 07:15:25;;;;;;;1.33;1.10;;;;;;;30.84;39.78;95484.00;5092703;28;20479;-51
2023/07/24 07:17:54;;;;;;;0.83;0.80;;;;;;;30.69;41.92;95485.97;5093460;28;20444;-51
2023/07/24 07:20:22;;;;;;;0.90;0.70;;;;;;;31.10;40.57;95486.28;5093688;28;20775;-51
2023/07/24 07:22:50;;;;;;;0.73;0.73;;;;;;;31.31;39.01;95487.00;5092980;28;20437;-51
2023/07/24 07:25:19;;;;;;;1.37;1.27;;;;;;;31.63;38.97;95480.59;5092822;28;20580;-51
2023/07/24 07:27:47;;;;;;;4.13;0.50;;;;;;;32.13;38.11;95487.31;5093343;28;20527;-51
2023/07/24 07:30:17;;;;;;;3.10;2.90;;;;;;;31.33;37.10;95492.06;5093077;28;20439;-51
2023/07/24 07:32:48;;;;;;;5.40;1.00;;;;;;;31.34;36.77;95483.47;5093253;28;20436;-50
2023/07/24 07:35:16;;;;;;;5.90;2.10;;;;;;;30.83;37.58;95475.00;5059776;28;20504;-50
2023/07/24 07:37:45;;;;;;;0.60;0.50;;;;;;;31.64;36.99;95474.72;5072711;28;20440;-50
2023/07/24 07:40:13;;;;;;;1.80;1.70;;;;;;;31.15;38.04;95478.44;5072758;28;20506;-50
2023/07/24 07:42:42;;;;;;;1.33;1.10;;;;;;;31.71;38.22;95471.16;5072656;28;20819;-50
2023/07/24 07:45:12;;;;;;;8.33;0.97;;;;;;;31.92;36.07;95454.56;5071106;28;20530;-50
2023/07/24 07:47:42;;;;;;;1.63;1.53;;;;;;;32.16;35.73;95461.84;5071685;28;20447;-50
2023/07/24 07:50:10;;;;;;;3.70;1.03;;;;;;;31.74;36.23;95475.84;5072591;28;20992;-50
2023/07/24 07:52:39;;;;;;;2.13;2.03;;;;;;;31.93;34.02;95469.81;5071883;28;20441;-50
2023/07/24 07:55:08;;;;;;;1.97;1.20;;;;;;;32.52;34.60;95470.56;5072668;28;20476;-50
2023/07/24 07:57:37;;;;;;;0.87;0.73;;;;;;;32.95;35.33;95470.91;5071836;28;20520;-50
2023/07/24 08:00:07;;;;;;;1.63;0.60;;;;;;;33.01;34.64;95461.06;5072388;28;20440;-50
2023/07/24 08:02:39;;;;;;;2.10;1.23;;;;;;;33.07;33.91;95468.44;5072034;28;20448;-50
2023/07/24 08:05:10;;;;;;;1.07;0.97;;;;;;;32.93;34.28;95467.81;5072329;28;20440;-50
2023/07/24 08:07:48;;;;;;;2.50;2.20;;;;;;;32.95;33.07;95460.72;5072663;28;20519;-50
2023/07/24 08:10:16;;;;;;;2.43;2.10;;;;;;;32.08;33.37;95468.56;5072136;28;20959;-50
2023/07/24 08:12:45;;;;;;;1.10;1.00;;;;;;;32.59;33.97;95460.31;5072014;28;20946;-50
2023/07/24 08:15:14;;;;;;;1.00;0.90;;;;;;;33.09;35.47;95459.81;5071535;28;20484;-49
2023/07/24 08:17:42;;;;;;;1.90;0.70;;;;;;;33.12;34.92;95453.47;5072053;28;20960;-49
2023/07/24 08:20:13;;;;;;;1.20;1.10;;;;;;;32.59;32.22;95448.56;5071731;28;20433;-50
2023/07/24 08:22:42;;;;;;;2.77;2.57;;;;;;;32.32;32.65;95445.66;5072346;28;20455;-49
2023/07/24 08:25:10;;;;;;;1.87;1.77;;;;;;;32.91;32.56;95445.47;5071947;28;20440;-49
2023/07/24 08:27:39;;;;;;;2.03;1.83;;;;;;;32.98;33.15;95445.41;5082207;28;20838;-49
2023/07/24 08:30:27;;;;;;;0.90;0.90;;;;;;;33.73;33.22;95444.06;5091949;28;20941;-49
2023/07/24 08:32:56;;;;;;;2.37;1.57;;;;;;;33.68;32.69;95444.53;5091603;28;20436;-49
2023/07/24 08:35:26;;;;;;;1.17;0.87;;;;;;;33.75;34.68;95438.91;5091972;28;20812;-49
2023/07/24 08:37:55;;;;;;;2.30;1.23;;;;;;;33.23;36.56;95437.66;5091852;28;21013;-49
2023/07/24 08:40:23;;;;;;;1.20;0.70;;;;;;;33.80;34.46;95435.69;5091957;28;20941;-49
2023/07/24 08:42:52;;;;;;;0.73;0.73;;;;;;;34.04;33.52;95435.75;5091912;28;20944;-49
2023/07/24 08:45:21;;;;;;;2.00;1.20;;;;;;;34.33;32.91;95432.13;5091056;28;20530;-50
2023/07/24 08:47:51;;;;;;;1.20;1.10;;;;;;;34.99;32.30;95418.31;5091720;28;20477;-49
2023/07/24 08:50:21;;;;;;;2.00;0.93;;;;;;;34.95;32.34;95427.88;5091858;28;20501;-49
2023/07/24 08:52:51;;;;;;;1.47;1.10;;;;;;;34.24;32.94;95423.63;5091501;28;20436;-49
2023/07/24 08:55:21;;;;;;;0.90;0.57;;;;;;;34.97;33.79;95420.72;5090886;28;20443;-49
2023/07/24 08:57:50;;;;;;;1.03;1.00;;;;;;;35.14;32.14;95401.56;5091509;28;20866;-49
2023/07/24 09:00:19;;;;;;;8.73;1.33;;;;;;;34.42;32.63;95426.09;5091662;28;20450;-50
2023/07/24 09:02:48;;;;;;;0.93;0.93;;;;;;;35.01;30.84;95418.69;5091527;28;20822;-49
2023/07/24 09:05:16;;;;;;;0.77;0.47;;;;;;;35.57;32.13;95416.75;5091248;28;20466;-49
2023/07/24 09:07:46;;;;;;;1.77;1.67;;;;;;;35.43;32.64;95413.50;5090817;28;20453;-49
2023/07/24 09:10:16;;;;;;;1.77;1.23;;;;;;;35.26;31.76;95409.94;5091648;28;20248;-49
2023/07/24 09:12:45;;;;;;;2.30;2.20;;;;;;;35.38;30.96;95408.50;5091174;28;20250;-50
2023/07/24 09:15:14;;;;;;;1.23;1.00;;;;;;;35.52;30.82;95397.97;5091487;28;20655;-49
2023/07/24 09:17:51;;;;;;;0.90;0.90;;;;;;;36.00;30.76;95396.50;5090444;28;20213;-49
2023/07/24 09:20:21;;;;;;;2.23;1.70;;;;;;;35.02;30.91;95389.94;5091137;28;20589;-50
2023/07/24 09:22:54;;;;;;;0.90;0.90;;;;;;;36.20;30.12;95386.13;5091580;28;20286;-49
2023/07/24 09:25:44;;;;;;;1.03;1.03;;;;;;;36.38;29.36;95385.69;5091580;28;20666;-49
2023/07/24 09:28:14;;;;;;;3.17;1.83;;;;;;;35.71;32.79;95379.81;5090217;28;20194;-51
2023/07/24 09:30:51;;;;;;;0.70;0.57;;;;;;;36.45;30.94;95382.72;5091864;28;20194;-51
2023/07/24 09:33:20;;;;;;;0.80;0.63;;;;;;;36.31;29.46;95375.59;5090216;28;20247;-50
2023/07/24 09:35:59;;;;;;;1.35;1.20;;;;;;;36.02;29.67;95370.03;5091259;28;20200;-50
2023/07/24 09:38:27;;;;;;;2.00;0.50;;;;;;;37.15;29.92;95361.47;5091470;28;20198;-50
2023/07/24 09:40:58;;;;;;;4.15;3.95;;;;;;;36.14;29.68;95361.03;5090913;28;20190;-50
2023/07/24 09:43:28;;;;;;;1.00;0.82;;;;;;;36.80;29.68;95360.47;5058493;28;20277;-49
2023/07/24 09:46:07;;;;;;;1.88;1.17;;;;;;;37.16;31.01;95365.78;5071114;28;20232;-49
2023/07/24 09:48:37;;;;;;;1.40;1.30;;;;;;;36.61;31.15;95361.38;5071205;28;20782;-50
2023/07/24 09:51:13;;;;;;;2.25;1.08;;;;;;;37.11;29.66;95357.25;5070867;28;20723;-50
2023/07/24 09:53:48;;;;;;;1.70;0.67;;;;;;;37.96;31.73;95349.88;5070971;28;20259;-50
2023/07/24 09:56:18;;;;;;;2.03;1.00;;;;;;;37.76;30.71;95349.34;5066187;28;20251;-50
2023/07/24 09:58:55;;;;;;;0.80;0.80;;;;;;;38.03;29.29;95344.09;5063956;28;20252;-50
2023/07/24 10:01:24;;;;;;;1.25;1.17;;;;;;;37.53;29.47;95336.63;5090924;28;20247;-50
2023/07/24 10:03:54;;;;;;;5.05;1.67;;;;;;;37.91;29.28;95333.84;5090890;28;20667;-50
2023/07/24 10:06:23;;;;;;;8.63;1.60;;;;;;;38.15;32.39;95323.94;5090867;28;20742;-50
2023/07/24 10:08:53;;;;;;;1.25;1.15;;;;;;;38.30;31.33;95319.50;5093480;28;20189;-50
2023/07/24 10:11:24;;;;;;;0.82;0.80;;;;;;;38.59;30.40;95317.25;5094477;28;20660;-50
2023/07/24 10:13:53;;;;;;;1.50;1.40;;;;;;;38.25;29.94;95306.19;5094132;28;20194;-50
2023/07/24 10:16:22;;;;;;;2.78;0.70;;;;;;;38.42;29.98;95301.28;5094404;28;20239;-50
2023/07/24 10:18:50;;;;;;;1.48;1.38;;;;;;;38.33;30.27;95307.50;5094184;28;20229;-50
2023/07/24 10:21:27;;;;;;;1.40;1.38;;;;;;;38.27;28.81;95300.97;5094760;28;20197;-50
2023/07/24 10:24:00;;;;;;;1.35;1.08;;;;;;;38.51;28.73;95295.78;5060435;28;20213;-50
2023/07/24 10:26:30;;;;;;;0.65;0.60;;;;;;;39.00;29.06;95291.22;5074297;28;20205;-50
2023/07/24 10:28:59;;;;;;;0.77;0.77;;;;;;;39.63;27.05;95285.22;5074022;28;20260;-51
2023/07/24 10:31:28;;;;;;;1.75;1.65;;;;;;;39.80;29.67;95274.59;5073484;28;20281;-51
2023/07/24 10:34:04;;;;;;;1.38;1.38;;;;;;;39.26;28.75;95269.66;5074176;28;20694;-51
2023/07/24 10:36:35;;;;;;;2.58;1.73;;;;;;;38.86;28.64;95266.81;5074195;28;20217;-51
2023/07/24 10:39:13;;;;;;;1.58;1.50;;;;;;;38.04;29.26;95259.88;5074143;28;20198;-51
2023/07/24 10:41:44;;;;;;;0.85;0.85;;;;;;;39.06;29.33;95255.38;5093725;28;20213;-51
2023/07/24 10:44:13;;;;;;;1.77;1.48;;;;;;;39.70;29.04;95253.59;5093930;28;20202;-51
2023/07/24 10:46:43;;;;;;;0.55;0.55;;;;;;;39.92;28.61;95188.41;5094508;28;20276;-51
2023/07/24 10:49:12;;;;;;;1.20;1.00;;;;;;;39.92;27.55;95248.72;5093862;28;20194;-51
2023/07/24 10:51:41;;;;;;;2.67;0.77;;;;;;;40.05;29.19;95249.38;5094124;28;20186;-51
2023/07/24 10:54:09;;;;;;;1.85;1.75;;;;;;;39.87;29.34;95250.09;5093631;28;20197;-51
2023/07/24 10:56:38;;;;;;;0.40;0.40;;;;;;;40.48;29.30;95249.06;5093870;28;20694;-51
2023/07/24 10:59:08;;;;;;;0.47;0.45;;;;;;;41.06;27.02;95248.78;5093411;28;20258;-51
2023/07/24 11:01:36;;;;;;;0.70;0.65;;;;;;;40.73;26.34;95253.53;5092671;28;20667;-51
2023/07/24 11:04:05;;;;;;;0.40;0.40;;;;;;;40.84;26.44;95239.09;5093239;28;20197;-51
2023/07/24 11:06:33;;;;;;;1.05;0.95;;;;;;;40.34;26.12;95233.00;5093323;28;20205;-52
2023/07/24 11:09:02;;;;;;;1.10;0.95;;;;;;;40.02;26.03;95241.16;5092437;28;20196;-52
2023/07/24 11:11:30;;;;;;;0.93;0.93;;;;;;;39.78;27.09;95227.88;5093716;28;20225;-52
2023/07/24 11:14:01;;;;;;;3.05;2.15;;;;;;;39.59;26.61;95228.28;5093447;28;20213;-52
2023/07/24 11:16:33;;;;;;;0.70;0.70;;;;;;;40.03;27.68;95214.97;5093240;28;20229;-49
2023/07/24 11:19:02;;;;;;;1.08;1.08;;;;;;;39.84;27.63;95223.28;5093208;28;20251;-50
2023/07/24 11:21:30;;;;;;;4.07;1.25;;;;;;;39.97;26.62;95207.22;5092664;28;20251;-50
2023/07/24 11:24:00;;;;;;;1.80;0.93;;;;;;;39.37;26.27;95211.00;5093590;28;20285;-51
2023/07/24 11:26:29;;;;;;;1.35;1.25;;;;;;;39.13;26.98;95221.81;5093330;28;20201;-51
2023/07/24 11:28:57;;;;;;;0.68;0.68;;;;;;;38.91;27.66;95210.03;5093512;28;20202;-51
2023/07/24 11:31:26;;;;;;;1.88;1.15;;;;;;;37.56;28.15;95216.03;5091870;28;20225;-51
2023/07/24 11:33:56;;;;;;;1.55;1.45;;;;;;;38.08;28.69;95213.44;5093060;28;20197;-51
2023/07/24 11:36:25;;;;;;;1.55;1.25;;;;;;;38.22;27.90;95199.09;5092374;28;20795;-51
2023/07/24 11:38:53;;;;;;;1.38;1.27;;;;;;;37.76;28.02;95205.47;5092385;28;20213;-51
2023/07/24 11:41:22;;;;;;;4.72;1.23;;;;;;;38.40;28.21;95190.97;5093090;28;20213;-50
2023/07/24 11:43:51;;;;;;;1.25;0.95;;;;;;;39.12;27.90;95195.31;5092736;28;20205;-50